createdAt,value
2018-07-19T00:00:47.897Z,2.10
2018-07-19T00:03:22.486Z,2.17
2018-07-19T00:05:50.808Z,2.10
2018-07-19T00:08:23.964Z,2.30
2018-07-19T00:11:03.632Z,2.03
2018-07-19T00:13:34.765Z,2.47
2018-07-19T00:16:12.914Z,2.50
2018-07-19T00:18:41.195Z,2.60
2018-07-19T00:21:14.503Z,3.40
2018-07-19T00:23:47.728Z,3.20
2018-07-19T00:26:19.948Z,3.23
2018-07-19T00:28:48.388Z,3.47
2018-07-19T00:31:16.940Z,3.20
2018-07-19T00:33:48.045Z,3.27
2018-07-19T00:36:19.256Z,3.27
2018-07-19T00:38:53.769Z,2.70
2018-07-19T00:41:35.761Z,3.17
2018-07-19T00:44:04.156Z,3.60
2018-07-19T00:46:32.637Z,3.03
2018-07-19T00:49:01.090Z,3.63
2018-07-19T00:51:29.511Z,3.30
2018-07-19T00:53:57.753Z,3.23
2018-07-19T00:56:30.256Z,3.00
2018-07-19T00:59:08.260Z,3.53
2018-07-19T01:01:38.673Z,2.80
2018-07-19T01:04:18.521Z,3.17
2018-07-19T01:06:50.959Z,3.30
2018-07-19T01:09:27.657Z,3.40
2018-07-19T01:11:55.948Z,3.00
2018-07-19T01:14:29.192Z,3.17
2018-07-19T01:17:03.964Z,2.83
2018-07-19T01:19:32.231Z,2.83
2018-07-19T01:22:04.865Z,3.17
2018-07-19T01:24:33.177Z,3.10
2018-07-19T01:27:06.315Z,3.70
2018-07-19T01:29:38.746Z,3.50
2018-07-19T01:32:13.371Z,3.37
2018-07-19T01:34:55.560Z,3.60
2018-07-19T01:37:35.967Z,3.67
2018-07-19T01:40:06.420Z,3.70
2018-07-19T01:42:39.900Z,3.30
2018-07-19T01:45:15.226Z,3.17
2018-07-19T01:48:01.355Z,3.00
2018-07-19T01:50:29.882Z,3.30
2018-07-19T01:53:08.266Z,4.00
2018-07-19T01:55:36.785Z,3.97
2018-07-19T01:58:05.048Z,3.67
2018-07-19T02:00:33.336Z,3.20
2018-07-19T02:03:06.423Z,3.50
2018-07-19T02:05:45.029Z,3.20
2018-07-19T02:08:23.204Z,3.00
2018-07-19T02:10:56.574Z,3.67
2018-07-19T02:13:29.818Z,3.53
2018-07-19T02:15:58.134Z,3.47
2018-07-19T02:18:26.501Z,3.27
2018-07-19T02:20:58.709Z,3.33
2018-07-19T02:23:32.952Z,3.27
2018-07-19T02:26:03.114Z,3.00
2018-07-19T02:28:31.485Z,3.10
2018-07-19T02:31:02.912Z,3.70
2018-07-19T02:33:37.662Z,3.20
2018-07-19T02:36:05.904Z,3.60
2018-07-19T02:38:36.906Z,3.97
2018-07-19T02:41:10.292Z,3.73
2018-07-19T02:43:40.809Z,3.50
2018-07-19T02:46:11.450Z,3.63
2018-07-19T02:48:45.572Z,3.43
2018-07-19T02:51:14.047Z,3.67
2018-07-19T02:53:42.154Z,3.67
2018-07-19T02:56:17.481Z,3.67
2018-07-19T02:58:47.711Z,3.47
2018-07-19T03:01:27.384Z,3.43
2018-07-19T03:04:01.777Z,3.43
2018-07-19T03:06:43.841Z,3.33
2018-07-19T03:09:14.141Z,3.70
2018-07-19T03:11:42.381Z,3.20
2018-07-19T03:14:10.707Z,3.37
2018-07-19T03:16:45.437Z,2.90
2018-07-19T03:19:13.655Z,3.67
2018-07-19T03:21:48.304Z,3.80
2018-07-19T03:24:16.572Z,3.53
2018-07-19T03:26:51.168Z,2.90
2018-07-19T03:29:24.484Z,3.80
2018-07-19T03:32:04.383Z,3.70
2018-07-19T03:34:32.721Z,4.17
2018-07-19T03:37:01.001Z,3.87
2018-07-19T03:39:29.269Z,4.13
2018-07-19T03:42:00.327Z,3.87
2018-07-19T03:44:29.152Z,3.53
2018-07-19T03:47:03.681Z,4.00
2018-07-19T03:49:34.994Z,3.70
2018-07-19T03:52:08.427Z,3.90
2018-07-19T03:54:40.877Z,4.77
2018-07-19T03:57:13.551Z,4.33
2018-07-19T03:59:52.117Z,3.77
2018-07-19T04:02:28.275Z,4.90
2018-07-19T04:05:03.858Z,4.70
2018-07-19T04:07:38.592Z,3.80
2018-07-19T04:10:06.925Z,4.37
2018-07-19T04:12:40.593Z,4.20
2018-07-19T04:15:08.823Z,4.33
2018-07-19T04:18:03.130Z,4.70
2018-07-19T04:20:35.576Z,4.47
2018-07-19T04:23:08.152Z,5.97
2018-07-19T04:25:36.455Z,4.90
2018-07-19T04:28:14.578Z,5.20
2018-07-19T04:30:47.833Z,5.23
2018-07-19T04:33:19.091Z,4.70
2018-07-19T04:35:47.389Z,4.83
2018-07-19T04:38:23.544Z,5.90
2018-07-19T04:40:58.309Z,4.80
2018-07-19T04:43:26.527Z,5.00
2018-07-19T04:45:57.484Z,5.63
2018-07-19T04:48:25.934Z,5.47
2018-07-19T04:50:54.427Z,5.40
2018-07-19T04:53:22.709Z,6.13
2018-07-19T04:56:00.438Z,5.67
2018-07-19T04:58:28.781Z,5.77
2018-07-19T05:00:57.054Z,6.00
2018-07-19T05:03:31.599Z,5.60
2018-07-19T05:06:03.937Z,5.73
2018-07-19T05:08:37.393Z,6.17
2018-07-19T05:11:10.439Z,6.37
2018-07-19T05:13:42.513Z,6.20
2018-07-19T05:16:10.751Z,6.17
2018-07-19T05:18:48.496Z,6.20
2018-07-19T05:21:16.766Z,6.50
2018-07-19T05:23:47.804Z,7.40
2018-07-19T05:26:26.222Z,7.13
2018-07-19T05:28:59.542Z,6.27
2018-07-19T05:31:27.970Z,5.50
2018-07-19T05:33:56.510Z,5.70
2018-07-19T05:36:24.924Z,5.90
2018-07-19T05:38:53.318Z,6.10
2018-07-19T05:41:21.696Z,5.37
2018-07-19T05:43:49.957Z,5.40
2018-07-19T05:46:24.509Z,5.20
2018-07-19T05:48:59.743Z,4.90
2018-07-19T05:51:40.321Z,4.87
2018-07-19T05:54:14.278Z,4.90
2018-07-19T05:56:44.631Z,5.07
2018-07-19T05:59:13.102Z,4.73
2018-07-19T06:01:41.423Z,4.70
2018-07-19T06:04:15.508Z,4.90
2018-07-19T06:06:48.991Z,4.93
2018-07-19T06:09:21.496Z,5.20
2018-07-19T06:11:54.627Z,4.00
2018-07-19T06:14:24.905Z,4.53
2018-07-19T06:16:53.161Z,3.57
2018-07-19T06:19:21.460Z,3.90
2018-07-19T06:21:56.014Z,3.73
2018-07-19T06:24:29.993Z,2.70
2018-07-19T06:27:06.117Z,2.57
2018-07-19T06:29:34.682Z,2.70
2018-07-19T06:32:02.986Z,2.47
2018-07-19T06:34:31.370Z,2.50
2018-07-19T06:37:03.829Z,2.57
2018-07-19T06:39:36.325Z,2.57
2018-07-19T06:42:08.917Z,2.60
2018-07-19T06:44:37.178Z,2.93
2018-07-19T06:47:12.732Z,2.77
2018-07-19T06:49:49.854Z,2.30
2018-07-19T06:52:22.445Z,2.10
2018-07-19T06:54:57.827Z,2.20
2018-07-19T06:57:33.350Z,2.27
2018-07-19T07:00:04.413Z,2.50
2018-07-19T07:02:35.690Z,2.43
2018-07-19T07:05:12.094Z,2.67
2018-07-19T07:07:40.433Z,3.00
2018-07-19T07:10:08.761Z,2.80
2018-07-19T07:12:43.417Z,2.60
2018-07-19T07:15:11.771Z,2.60
2018-07-19T07:17:42.861Z,2.70
2018-07-19T07:20:15.138Z,2.87
2018-07-19T07:22:46.437Z,2.50
2018-07-19T07:25:14.644Z,2.60
2018-07-19T07:27:52.321Z,2.90
2018-07-19T07:30:20.689Z,2.20
2018-07-19T07:32:48.977Z,2.00
2018-07-19T07:35:24.423Z,2.30
2018-07-19T07:37:59.004Z,2.23
2018-07-19T07:40:27.305Z,2.00
2018-07-19T07:45:40.786Z,2.20
2018-07-19T07:48:09.358Z,2.03
2018-07-19T07:50:41.898Z,2.00
2018-07-19T07:53:13.796Z,2.00
2018-07-19T07:55:42.036Z,2.23
2018-07-19T07:58:16.478Z,1.67
2018-07-19T08:00:48.333Z,1.63
2018-07-19T08:03:16.713Z,1.60
2018-07-19T08:05:45.039Z,1.70
2018-07-19T08:08:20.013Z,2.00
2018-07-19T08:10:51.298Z,1.70
2018-07-19T08:13:19.514Z,1.80
2018-07-19T08:15:52.145Z,1.90
2018-07-19T08:18:20.364Z,1.70
2018-07-19T08:20:48.353Z,1.70
2018-07-19T08:23:16.856Z,1.63
2018-07-19T08:25:45.190Z,1.70
2018-07-19T08:28:13.702Z,1.37
2018-07-19T08:30:41.983Z,1.60
2018-07-19T08:33:14.469Z,1.77
2018-07-19T08:35:44.826Z,1.83
2018-07-19T08:38:20.385Z,1.90
2018-07-19T08:40:51.915Z,1.73
2018-07-19T08:43:20.227Z,2.00
2018-07-19T08:45:51.299Z,1.60
2018-07-19T08:48:22.521Z,1.57
2018-07-19T08:50:50.832Z,1.73
2018-07-19T08:53:23.339Z,1.80
2018-07-19T08:55:51.668Z,1.80
2018-07-19T08:58:27.189Z,1.80
2018-07-19T09:00:58.603Z,1.60
2018-07-19T09:03:30.014Z,1.67
2018-07-19T09:06:05.515Z,1.50
2018-07-19T09:08:45.320Z,1.70
2018-07-19T09:11:13.801Z,1.67
2018-07-19T09:13:42.152Z,1.87
2018-07-19T09:16:10.547Z,1.93
2018-07-19T09:18:38.839Z,1.83
2018-07-19T09:21:11.269Z,1.90
2018-07-19T09:23:49.122Z,2.03
2018-07-19T09:26:17.347Z,1.90
2018-07-19T09:28:48.720Z,2.13
2018-07-19T09:31:23.470Z,1.57
2018-07-19T09:33:51.726Z,1.87
2018-07-19T09:36:24.238Z,1.70
2018-07-19T09:39:04.107Z,1.90
2018-07-19T09:41:34.689Z,1.77
2018-07-19T09:44:08.285Z,1.90
2018-07-19T09:46:42.860Z,1.83
2018-07-19T09:49:17.541Z,1.90
2018-07-19T09:51:45.761Z,1.70
2018-07-19T09:54:25.438Z,1.60
2018-07-19T09:56:54.049Z,1.80
2018-07-19T09:59:22.287Z,1.97
2018-07-19T10:01:54.834Z,1.80
2018-07-19T10:04:23.662Z,2.03
2018-07-19T10:06:54.468Z,1.80
2018-07-19T10:09:32.201Z,1.87
2018-07-19T10:12:06.120Z,1.70
2018-07-19T10:14:38.605Z,1.90
2018-07-19T10:17:11.112Z,2.00
2018-07-19T10:19:43.513Z,1.60
2018-07-19T10:22:12.031Z,2.10
2018-07-19T10:24:44.419Z,2.10
2018-07-19T10:27:14.761Z,2.07
2018-07-19T10:29:43.013Z,1.93
2018-07-19T10:32:11.400Z,1.80
2018-07-19T10:34:46.021Z,1.80
2018-07-19T10:37:14.338Z,1.90
2018-07-19T10:39:46.916Z,1.90
2018-07-19T10:42:22.201Z,2.03
2018-07-19T10:45:01.034Z,2.10
2018-07-19T10:47:29.568Z,2.27
2018-07-19T10:50:00.253Z,2.00
2018-07-19T10:52:43.991Z,2.20
2018-07-19T10:55:17.187Z,1.80
2018-07-19T10:57:52.614Z,2.00
2018-07-19T11:00:27.293Z,2.20
2018-07-19T11:03:00.462Z,2.03
2018-07-19T11:05:33.786Z,2.63
2018-07-19T11:08:14.425Z,2.10
2018-07-19T11:10:54.298Z,2.10
2018-07-19T11:13:22.791Z,2.27
2018-07-19T11:15:51.158Z,2.10
2018-07-19T11:18:19.552Z,2.00
2018-07-19T11:20:48.206Z,2.83
2018-07-19T11:23:16.562Z,2.30
2018-07-19T11:25:44.881Z,2.30
2018-07-19T11:28:24.646Z,2.30
2018-07-19T11:30:52.904Z,2.60
2018-07-19T11:33:24.001Z,2.37
2018-07-19T11:35:56.326Z,2.10
2018-07-19T11:38:26.981Z,2.30
2018-07-19T11:41:01.443Z,2.67
2018-07-19T11:43:33.982Z,2.30
2018-07-19T11:46:16.681Z,2.50
2018-07-19T11:48:45.042Z,2.60
2018-07-19T11:51:17.796Z,2.70
2018-07-19T11:53:46.029Z,2.60
2018-07-19T11:56:20.584Z,3.03
2018-07-19T11:58:48.902Z,2.40
2018-07-19T12:01:18.993Z,2.40
2018-07-19T12:03:47.517Z,2.80
2018-07-19T12:06:27.997Z,2.70
2018-07-19T12:08:59.004Z,2.33
2018-07-19T12:11:27.357Z,2.60
2018-07-19T12:13:55.881Z,2.57
2018-07-19T12:16:24.156Z,2.50
2018-07-19T12:19:03.938Z,2.37
2018-07-19T12:21:32.190Z,2.70
2018-07-19T12:24:07.686Z,2.33
2018-07-19T12:26:36.314Z,2.13
2018-07-19T12:29:04.663Z,2.70
2018-07-19T12:31:33.015Z,2.50
2018-07-19T12:34:07.670Z,2.47
2018-07-19T12:36:35.868Z,2.17
2018-07-19T12:39:10.267Z,2.20
2018-07-19T12:41:44.671Z,2.77
2018-07-19T12:44:17.909Z,2.47
2018-07-19T12:46:59.229Z,2.60
2018-07-19T12:49:37.109Z,2.80
2018-07-19T12:52:10.429Z,2.80
2018-07-19T12:54:42.648Z,2.30
2018-07-19T12:57:13.986Z,2.00
2018-07-19T12:59:44.290Z,2.60
2018-07-19T13:02:12.485Z,2.57
2018-07-19T13:04:43.815Z,2.53
2018-07-19T13:07:25.924Z,2.40
2018-07-19T13:09:58.386Z,2.53
2018-07-19T13:12:31.898Z,2.30
2018-07-19T13:15:06.504Z,2.27
2018-07-19T13:17:38.882Z,2.17
2018-07-19T13:20:11.168Z,2.23
2018-07-19T13:22:42.476Z,2.20
2018-07-19T13:25:10.817Z,2.33
2018-07-19T13:27:39.053Z,2.50
2018-07-19T13:30:13.489Z,2.50
2018-07-19T13:32:51.103Z,2.60
2018-07-19T13:35:19.332Z,2.10
2018-07-19T13:37:53.809Z,2.47
2018-07-19T13:40:28.925Z,2.50
2018-07-19T13:43:00.200Z,2.20
2018-07-19T13:45:28.849Z,2.67
2018-07-19T13:48:02.080Z,2.40
2018-07-19T13:50:30.298Z,2.87
2018-07-19T13:54:18.245Z,2.10
2018-07-19T13:56:46.390Z,2.40
2018-07-19T13:59:17.725Z,2.73
2018-07-19T14:01:59.816Z,2.40
2018-07-19T14:04:28.685Z,2.83
2018-07-19T14:07:05.334Z,1.93
2018-07-19T14:09:33.626Z,2.40
2018-07-19T14:12:08.023Z,2.37
2018-07-19T14:14:40.701Z,2.70
2018-07-19T14:17:09.404Z,2.67
2018-07-19T14:19:37.753Z,2.57
2018-07-19T14:22:06.419Z,2.53
2018-07-19T14:24:34.622Z,2.33
2018-07-19T14:27:08.036Z,2.60
2018-07-19T14:29:37.123Z,2.57
2018-07-19T14:32:10.039Z,2.53
2018-07-19T14:34:42.472Z,2.50
2018-07-19T14:37:14.975Z,2.93
2018-07-19T14:39:46.195Z,2.43
2018-07-19T14:42:20.653Z,2.60
2018-07-19T14:44:58.877Z,2.40
2018-07-19T14:47:31.262Z,2.90
2018-07-19T14:50:02.994Z,2.50
2018-07-19T14:52:34.972Z,2.50
2018-07-19T14:57:41.537Z,2.70
2018-07-19T15:00:16.220Z,2.80
2018-07-19T15:02:48.454Z,2.60
2018-07-19T15:05:16.843Z,2.83
2018-07-19T15:07:51.561Z,2.43
2018-07-19T15:10:19.765Z,3.00
2018-07-19T15:12:55.571Z,2.20
2018-07-19T15:15:23.800Z,2.93
2018-07-19T15:17:54.856Z,2.70
2018-07-19T15:20:26.023Z,2.50
2018-07-19T15:22:54.230Z,2.80
2018-07-19T15:25:26.756Z,2.27
2018-07-19T15:28:01.332Z,2.50
2018-07-19T15:30:29.653Z,2.37
2018-07-19T15:33:00.452Z,2.50
2018-07-19T15:35:32.845Z,2.47
2018-07-19T15:38:01.136Z,3.27
2018-07-19T15:40:29.385Z,2.50
2018-07-19T15:43:00.557Z,2.70
2018-07-19T15:45:44.610Z,2.30
2018-07-19T15:48:12.862Z,2.40
2018-07-19T15:50:48.969Z,2.43
2018-07-19T15:53:24.510Z,2.80
2018-07-19T15:56:05.030Z,2.60
2018-07-19T15:58:39.629Z,2.60
2018-07-19T16:01:12.125Z,2.43
2018-07-19T16:03:40.530Z,2.37
2018-07-19T16:06:13.927Z,2.40
2018-07-19T16:08:48.378Z,2.60
2018-07-19T16:11:18.854Z,2.50
2018-07-19T16:13:47.037Z,2.30
2018-07-19T16:16:20.635Z,2.60
2018-07-19T16:18:53.185Z,2.40
2018-07-19T16:21:26.693Z,2.40
2018-07-19T16:24:03.453Z,2.27
2018-07-19T16:26:31.665Z,2.20
2018-07-19T16:29:01.765Z,4.00
2018-07-19T16:31:40.092Z,3.73
2018-07-19T16:34:11.348Z,4.33
2018-07-19T16:36:39.574Z,2.37
2018-07-19T16:39:12.017Z,2.30
2018-07-19T16:41:44.452Z,2.27
2018-07-19T16:44:19.053Z,2.50
2018-07-19T16:46:47.261Z,2.20
2018-07-19T16:49:22.548Z,2.30
2018-07-19T16:51:53.521Z,2.40
2018-07-19T16:54:21.749Z,2.60
2018-07-19T16:56:59.218Z,2.50
2018-07-19T16:59:30.293Z,2.50
2018-07-19T17:02:03.721Z,2.90
2018-07-19T17:04:38.052Z,2.43
2018-07-19T17:07:08.350Z,2.77
2018-07-19T17:09:36.647Z,2.63
2018-07-19T17:12:10.137Z,2.00
2018-07-19T17:14:38.327Z,2.30
2018-07-19T17:17:09.564Z,2.30
2018-07-19T17:19:39.989Z,2.70
2018-07-19T17:22:18.769Z,2.53
2018-07-19T17:24:53.319Z,2.50
2018-07-19T17:27:24.378Z,2.30
2018-07-19T17:30:02.793Z,2.50
2018-07-19T17:32:34.518Z,2.80
2018-07-19T17:35:10.559Z,2.40
2018-07-19T17:37:38.878Z,2.33
2018-07-19T17:40:07.225Z,2.13
2018-07-19T17:42:35.771Z,2.50
2018-07-19T17:45:04.263Z,2.17
2018-07-19T17:47:32.847Z,2.27
2018-07-19T17:50:01.058Z,2.50
2018-07-19T17:52:38.488Z,2.47
2018-07-19T17:55:11.031Z,2.57
2018-07-19T17:57:39.393Z,2.90
2018-07-19T18:00:12.706Z,3.00
2018-07-19T18:02:48.277Z,2.63
2018-07-19T18:05:21.378Z,2.67
2018-07-19T18:07:49.657Z,2.67
2018-07-19T18:10:18.112Z,3.10
2018-07-19T18:12:46.481Z,2.80
2018-07-19T18:15:14.728Z,2.60
2018-07-19T18:17:51.791Z,2.37
2018-07-19T18:20:29.558Z,2.77
2018-07-19T18:23:04.817Z,2.97
2018-07-19T18:25:37.248Z,2.83
2018-07-19T18:28:12.697Z,2.73
2018-07-19T18:30:46.410Z,2.40
2018-07-19T18:33:21.925Z,2.83
2018-07-19T18:35:50.783Z,2.67
2018-07-19T18:38:21.241Z,2.63
2018-07-19T18:40:50.309Z,2.80
2018-07-19T18:43:21.326Z,2.50
2018-07-19T18:45:51.820Z,3.03
2018-07-19T18:48:22.983Z,2.73
2018-07-19T18:50:51.246Z,3.30
2018-07-19T18:53:24.434Z,2.73
2018-07-19T18:55:55.476Z,3.30
2018-07-19T18:58:24.173Z,3.00
2018-07-19T19:01:05.779Z,3.07
2018-07-19T19:03:36.772Z,2.83
2018-07-19T19:06:05.136Z,2.90
2018-07-19T19:08:33.375Z,2.80
2018-07-19T19:11:07.899Z,2.90
2018-07-19T19:13:47.505Z,2.67
2018-07-19T19:16:15.683Z,3.10
2018-07-19T19:18:53.393Z,3.23
2018-07-19T19:21:23.501Z,2.97
2018-07-19T19:23:56.669Z,3.00
2018-07-19T19:26:27.522Z,3.00
2018-07-19T19:29:10.166Z,2.83
2018-07-19T19:31:38.540Z,3.10
2018-07-19T19:34:09.022Z,3.10
2018-07-19T19:36:37.349Z,2.87
2018-07-19T19:39:14.012Z,2.90
2018-07-19T19:41:42.687Z,3.10
2018-07-19T19:44:14.601Z,3.20
2018-07-19T19:46:47.328Z,3.10
2018-07-19T19:49:20.815Z,2.93
2018-07-19T19:51:49.108Z,3.13
2018-07-19T19:54:20.358Z,3.30
2018-07-19T19:56:52.139Z,2.70
2018-07-19T20:02:00.145Z,2.70
2018-07-19T20:04:32.613Z,3.27
2018-07-19T20:07:00.925Z,3.07
2018-07-19T20:09:35.261Z,3.10
2018-07-19T20:12:06.361Z,3.30
2018-07-19T20:14:34.757Z,3.20
2018-07-19T20:17:03.142Z,3.40
2018-07-19T20:19:31.362Z,3.20
2018-07-19T20:22:06.816Z,3.60
2018-07-19T20:24:45.036Z,3.47
2018-07-19T20:27:16.043Z,3.20
2018-07-19T20:29:44.366Z,3.30
2018-07-19T20:32:15.484Z,3.63
2018-07-19T20:34:47.786Z,3.83
2018-07-19T20:37:22.635Z,3.90
2018-07-19T20:39:57.105Z,3.87
2018-07-19T20:42:28.067Z,3.57
2018-07-19T20:44:58.346Z,3.23
2018-07-19T20:47:26.633Z,3.60
2018-07-19T20:49:57.684Z,4.10
2018-07-19T20:52:30.983Z,4.07
2018-07-19T20:55:03.093Z,3.70
2018-07-19T20:57:31.298Z,4.30
2018-07-19T21:00:02.387Z,3.83
2018-07-19T21:02:32.974Z,4.87
2018-07-19T21:05:04.122Z,4.10
2018-07-19T21:07:32.410Z,3.70
2018-07-19T21:10:05.079Z,4.20
2018-07-19T21:12:33.327Z,3.97
2018-07-19T21:15:04.593Z,4.00
2018-07-19T21:17:36.941Z,3.57
2018-07-19T21:20:17.519Z,3.67
2018-07-19T21:22:52.055Z,3.50
2018-07-19T21:25:23.079Z,3.63
2018-07-19T21:27:53.554Z,4.10
2018-07-19T21:30:23.726Z,3.83
2018-07-19T21:32:51.893Z,3.90
2018-07-19T21:35:27.502Z,4.00
2018-07-19T21:38:07.409Z,3.83
2018-07-19T21:40:37.956Z,4.37
2018-07-19T21:43:16.062Z,3.70
2018-07-19T21:45:44.439Z,3.93
2018-07-19T21:48:12.578Z,3.90
2018-07-19T21:50:43.542Z,4.17
2018-07-19T21:53:11.720Z,3.73
2018-07-19T21:55:51.650Z,4.37
2018-07-19T21:58:21.893Z,4.13
2018-07-19T22:00:55.719Z,3.63
2018-07-19T22:03:29.355Z,4.60
2018-07-19T22:06:00.414Z,3.80
2018-07-19T22:08:28.629Z,4.30
2018-07-19T22:10:56.866Z,4.30
2018-07-19T22:13:31.348Z,4.30
2018-07-19T22:18:39.557Z,4.83
2018-07-19T22:21:07.590Z,4.17
2018-07-19T22:23:40.674Z,4.70
2018-07-19T22:26:08.989Z,4.10
2018-07-19T22:28:37.259Z,4.00
2018-07-19T22:31:14.985Z,4.63
2018-07-19T22:33:43.226Z,4.70
2018-07-19T22:36:15.799Z,4.60
2018-07-19T22:38:44.015Z,4.30
2018-07-19T22:41:14.213Z,5.00
2018-07-19T22:43:45.557Z,4.67
2018-07-19T22:46:15.889Z,5.17
2018-07-19T22:48:44.220Z,4.97
2018-07-19T22:51:12.405Z,5.07
2018-07-19T22:53:43.377Z,4.77
2018-07-19T22:56:12.018Z,4.40
2018-07-19T22:58:40.332Z,5.13
2018-07-19T23:01:08.997Z,5.10
2018-07-19T23:03:39.267Z,5.30
2018-07-19T23:06:07.788Z,5.27
2018-07-19T23:08:36.005Z,4.57
2018-07-19T23:11:10.896Z,5.13
2018-07-19T23:13:39.630Z,4.23
2018-07-19T23:16:17.041Z,4.03
2018-07-19T23:18:48.461Z,4.77
2018-07-19T23:21:16.577Z,4.20
2018-07-19T23:23:44.780Z,4.47
2018-07-19T23:26:16.669Z,5.10
2018-07-19T23:28:45.165Z,5.00
2018-07-19T23:31:13.572Z,5.57
2018-07-19T23:33:41.852Z,4.13
2018-07-19T23:36:19.173Z,4.20
2018-07-19T23:38:55.432Z,5.20
2018-07-19T23:41:30.901Z,4.70
2018-07-19T23:44:07.593Z,4.60
2018-07-19T23:46:39.993Z,4.93
2018-07-19T23:49:12.382Z,4.23
2018-07-19T23:51:52.097Z,4.80
2018-07-19T23:54:20.308Z,4.20
2018-07-19T23:56:53.597Z,4.87
2018-07-19T23:59:28.139Z,5.30
